Time;durP1;ratioP1;P1;durP2;ratioP2;P2;SDS_P1;SDS_P2;PMS_P1;PMS_P2;Temp;Humidity;BMP_temperature;BMP_pressure;BME280_temperature;BME280_humidity;BME280_pressure;Samples;Min_cycle;Max_cycle;Signal;HPM_P1;HPM_P2
2021/07/23 00:01:25;;;;;;;7.78;5.80;;;;;;;16.21;100.00;97572.00;5132140;27;20023;-76
2021/07/23 00:03:51;;;;;;;13.80;6.63;;;;;;;16.13;100.00;97563.69;5132413;27;20027;-77
2021/07/23 00:06:16;;;;;;;13.88;6.43;;;;;;;16.16;100.00;97584.16;5132189;27;20035;-76
2021/07/23 00:08:42;;;;;;;8.60;5.82;;;;;;;16.05;100.00;97576.13;5130986;28;20059;-76
2021/07/23 00:11:07;;;;;;;6.20;4.97;;;;;;;16.06;100.00;97580.50;5132380;27;20104;-76
2021/07/23 00:13:33;;;;;;;10.10;5.85;;;;;;;15.99;100.00;97579.31;5131838;27;20570;-76
2021/07/23 00:15:58;;;;;;;12.20;5.72;;;;;;;15.96;100.00;97576.88;5113728;28;20066;-76
2021/07/23 00:18:24;;;;;;;8.75;5.88;;;;;;;15.93;100.00;97575.31;5113652;27;20023;-76
2021/07/23 00:20:50;;;;;;;8.52;5.75;;;;;;;15.87;100.00;97580.34;5134682;27;20398;-76
2021/07/23 00:23:15;;;;;;;9.85;5.50;;;;;;;15.75;100.00;97555.22;5136293;27;20027;-77
2021/07/23 00:25:41;;;;;;;10.73;5.90;;;;;;;15.78;100.00;97560.34;5134589;27;20030;-77
2021/07/23 00:28:06;;;;;;;7.40;4.88;;;;;;;15.81;100.00;97570.06;5134646;27;20026;-77
2021/07/23 00:30:32;;;;;;;8.70;5.00;;;;;;;15.93;100.00;97569.06;5134492;27;20027;-77
2021/07/23 00:32:58;;;;;;;11.05;5.30;;;;;;;15.93;100.00;97583.41;5136180;27;20065;-77
2021/07/23 00:35:24;;;;;;;10.88;5.10;;;;;;;15.78;100.00;97552.28;5134441;27;20031;-77
2021/07/23 00:37:50;;;;;;;9.05;5.07;;;;;;;15.84;100.00;97559.03;5135036;27;20066;-77
2021/07/23 00:40:15;;;;;;;5.97;4.95;;;;;;;15.76;100.00;97556.09;5135627;27;20059;-76
2021/07/23 00:42:43;;;;;;;7.80;5.30;;;;;;;15.80;100.00;97569.22;5134479;27;20027;-76
2021/07/23 00:45:09;;;;;;;13.68;5.00;;;;;;;15.78;100.00;97565.75;5134433;27;20094;-77
2021/07/23 00:47:36;;;;;;;8.68;4.95;;;;;;;15.64;100.00;97552.56;5134332;27;20030;-77
2021/07/23 00:50:03;;;;;;;7.07;5.40;;;;;;;15.66;100.00;97564.94;5134587;27;20477;-76
2021/07/23 00:52:29;;;;;;;8.07;5.07;;;;;;;15.58;100.00;97562.03;5133932;27;20027;-76
2021/07/23 00:54:55;;;;;;;8.45;4.97;;;;;;;15.60;100.00;97564.56;5134024;27;20061;-77
2021/07/23 00:57:20;;;;;;;6.07;5.05;;;;;;;15.55;100.00;97558.72;5134021;27;20031;-76
2021/07/23 00:59:46;;;;;;;8.63;5.00;;;;;;;15.48;100.00;97544.88;5135101;27;20176;-77
2021/07/23 01:02:12;;;;;;;6.22;4.93;;;;;;;15.60;100.00;97561.88;5133820;27;20463;-78
2021/07/23 01:04:40;;;;;;;9.70;5.15;;;;;;;15.60;100.00;97570.81;5133903;27;20418;-77
2021/07/23 01:07:05;;;;;;;7.75;5.13;;;;;;;15.45;100.00;97555.00;5135218;27;20049;-77
2021/07/23 01:09:31;;;;;;;14.18;4.88;;;;;;;15.49;100.00;97565.47;5134005;27;20037;-77
2021/07/23 01:11:57;;;;;;;6.22;4.78;;;;;;;15.52;100.00;97559.81;5133846;27;20444;-76
2021/07/23 01:14:24;;;;;;;6.03;4.85;;;;;;;15.49;100.00;97552.00;5133718;27;20153;-77
2021/07/23 01:16:49;;;;;;;8.40;5.15;;;;;;;15.50;100.00;97556.41;5116032;27;20103;-77
2021/07/23 01:19:16;;;;;;;7.82;5.25;;;;;;;15.33;100.00;97546.09;5134814;27;20023;-77
2021/07/23 01:21:45;;;;;;;7.72;5.18;;;;;;;15.35;100.00;97554.06;5133436;27;20084;-76
2021/07/23 01:24:13;;;;;;;8.98;5.70;;;;;;;15.25;100.00;97551.25;5134916;27;20405;-77
2021/07/23 01:26:40;;;;;;;10.50;5.65;;;;;;;15.23;100.00;97558.59;5115946;27;20098;-76
2021/07/23 01:29:05;;;;;;;11.95;6.53;;;;;;;15.25;100.00;97562.03;5133551;27;20055;-76
2021/07/23 01:31:31;;;;;;;12.50;7.15;;;;;;;15.18;100.00;97556.28;5132845;27;20491;-78
2021/07/23 01:33:56;;;;;;;9.85;5.90;;;;;;;15.14;100.00;97548.53;5134527;27;20547;-77
2021/07/23 01:36:22;;;;;;;10.32;6.43;;;;;;;15.25;100.00;97562.03;5134522;27;20015;-76
2021/07/23 01:38:49;;;;;;;14.38;5.80;;;;;;;15.16;100.00;97554.69;5133142;27;20034;-77
2021/07/23 01:41:15;;;;;;;6.85;5.38;;;;;;;15.12;100.00;97555.91;5133135;27;20028;-76
2021/07/23 01:43:41;;;;;;;6.68;5.30;;;;;;;15.11;100.00;97563.13;5134142;27;20015;-77
2021/07/23 01:46:06;;;;;;;7.75;5.45;;;;;;;15.06;100.00;97561.78;5133568;27;20019;-77
2021/07/23 01:48:32;;;;;;;17.05;5.90;;;;;;;15.01;100.00;97548.66;5132820;27;20098;-77
2021/07/23 01:50:57;;;;;;;8.23;5.25;;;;;;;15.02;100.00;97554.91;5134457;27;20090;-77
2021/07/23 01:53:23;;;;;;;9.40;5.72;;;;;;;15.01;100.00;97542.44;5132869;27;20019;-76
2021/07/23 01:55:48;;;;;;;9.63;6.15;;;;;;;15.02;100.00;97554.91;5133804;27;20023;-76
2021/07/23 01:58:14;;;;;;;13.40;6.03;;;;;;;15.05;100.00;97554.66;5134186;27;20076;-77
2021/07/23 02:00:39;;;;;;;6.25;5.38;;;;;;;15.07;100.00;97555.44;5133039;27;20019;-76
2021/07/23 02:03:05;;;;;;;8.13;5.90;;;;;;;15.12;100.00;97569.38;5134071;27;20463;-76
2021/07/23 02:05:30;;;;;;;9.63;6.20;;;;;;;15.02;100.00;97555.78;5134008;27;20019;-77
2021/07/23 02:07:56;;;;;;;11.02;6.38;;;;;;;15.02;100.00;97554.91;5133598;27;20398;-77
2021/07/23 02:10:23;;;;;;;9.52;6.18;;;;;;;15.00;100.00;97549.66;5132525;27;20105;-82
2021/07/23 02:12:48;;;;;;;12.05;6.40;;;;;;;15.04;100.00;97558.38;5132832;27;20031;-76
2021/07/23 02:15:14;;;;;;;9.45;5.93;;;;;;;15.07;100.00;97558.94;5132309;27;20111;-77
2021/07/23 02:17:40;;;;;;;9.68;5.40;;;;;;;14.98;100.00;97561.56;5132252;27;20023;-76
2021/07/23 02:20:06;;;;;;;6.88;5.13;;;;;;;14.97;100.00;97567.91;5115366;27;20478;-76
2021/07/23 02:22:31;;;;;;;10.07;5.75;;;;;;;14.87;100.00;97561.53;5133921;27;20019;-75
2021/07/23 02:24:57;;;;;;;6.70;5.50;;;;;;;14.83;100.00;97560.91;5115084;27;20027;-75
2021/07/23 02:27:22;;;;;;;8.50;6.18;;;;;;;14.67;100.00;97540.69;5133709;27;20222;-75
2021/07/23 02:29:48;;;;;;;12.43;6.30;;;;;;;14.64;100.00;97556.09;5131946;27;20035;-75
2021/07/23 02:32:13;;;;;;;17.05;6.60;;;;;;;14.61;100.00;97556.34;5115110;27;20026;-76
2021/07/23 02:34:39;;;;;;;9.82;5.93;;;;;;;14.65;100.00;97549.75;5114849;27;20508;-75
2021/07/23 02:37:04;;;;;;;14.55;5.93;;;;;;;14.71;100.00;97563.69;5133211;27;20023;-76
2021/07/23 02:39:30;;;;;;;8.55;5.88;;;;;;;14.71;100.00;97542.16;5132160;27;20023;-75
2021/07/23 02:41:56;;;;;;;9.23;6.13;;;;;;;14.75;100.00;97555.28;5131145;27;20114;-75
2021/07/23 02:44:21;;;;;;;8.38;6.10;;;;;;;14.70;100.00;97545.84;5132836;27;20023;-75
2021/07/23 02:46:46;;;;;;;29.92;6.43;;;;;;;14.73;100.00;97553.69;5133126;27;20064;-75
2021/07/23 02:49:12;;;;;;;13.25;6.40;;;;;;;14.62;100.00;97528.44;5131829;27;20022;-76
2021/07/23 02:51:38;;;;;;;34.92;11.02;;;;;;;14.76;100.00;97553.44;5114812;27;20027;-75
2021/07/23 02:54:03;;;;;;;29.65;10.10;;;;;;;14.81;100.00;97551.22;5131816;27;20023;-76
2021/07/23 02:56:29;;;;;;;30.80;10.95;;;;;;;14.76;100.00;97556.13;5131814;27;20435;-76
2021/07/23 02:58:54;;;;;;;22.35;10.57;;;;;;;14.78;100.00;97551.47;5132465;27;20034;-75
2021/07/23 03:01:20;;;;;;;51.78;11.05;;;;;;;14.82;100.00;97558.34;5132058;27;20394;-75
2021/07/23 03:03:45;;;;;;;39.28;16.73;;;;;;;14.80;100.00;97560.28;5114456;27;20038;-76
2021/07/23 03:06:11;;;;;;;25.23;15.85;;;;;;;14.73;100.00;97538.38;5133188;27;20023;-75
2021/07/23 03:08:36;;;;;;;26.23;13.35;;;;;;;14.68;100.00;97535.19;5133008;27;20474;-75
2021/07/23 03:11:03;;;;;;;28.35;14.60;;;;;;;14.83;100.00;97555.50;5132580;27;20415;-75
2021/07/23 03:13:29;;;;;;;22.13;12.40;;;;;;;14.78;100.00;97551.47;5114080;27;20156;-75
2021/07/23 03:15:54;;;;;;;14.05;8.95;;;;;;;14.76;100.00;97550.75;5131180;27;20023;-75
2021/07/23 03:18:20;;;;;;;12.95;7.38;;;;;;;14.73;100.00;97540.22;5131306;27;20478;-76
2021/07/23 03:20:45;;;;;;;10.32;6.38;;;;;;;14.65;100.00;97547.06;5132214;27;20027;-76
2021/07/23 03:23:11;;;;;;;8.00;6.47;;;;;;;14.58;100.00;97556.56;5132610;27;20027;-75
2021/07/23 03:25:37;;;;;;;11.50;6.70;;;;;;;14.49;100.00;97541.16;5114097;28;20015;-75
2021/07/23 03:28:03;;;;;;;12.38;7.45;;;;;;;14.55;100.00;97551.44;5132187;27;20492;-75
2021/07/23 03:30:28;;;;;;;12.18;6.68;;;;;;;14.52;100.00;97542.72;5131245;28;20023;-75
2021/07/23 03:32:54;;;;;;;12.15;6.80;;;;;;;14.56;100.00;97552.28;5132257;27;20490;-76
2021/07/23 03:35:20;;;;;;;8.57;6.50;;;;;;;14.66;100.00;97547.91;5131082;27;20024;-75
2021/07/23 03:37:45;;;;;;;24.92;6.95;;;;;;;14.70;100.00;97552.09;5131155;28;20023;-75
2021/07/23 03:40:11;;;;;;;27.02;7.43;;;;;;;14.85;100.00;97555.41;5131134;28;20034;-76
2021/07/23 03:42:36;;;;;;;15.68;7.75;;;;;;;14.87;100.00;97551.59;5113908;28;20424;-76
2021/07/23 03:45:03;;;;;;;33.75;7.93;;;;;;;14.92;100.00;97540.50;5130848;27;20039;-75
2021/07/23 03:47:28;;;;;;;14.98;7.43;;;;;;;15.08;100.00;97559.81;5131487;27;20505;-75
2021/07/23 03:49:54;;;;;;;12.98;6.95;;;;;;;15.13;100.00;97563.03;5132231;27;20023;-75
2021/07/23 03:52:19;;;;;;;12.63;6.88;;;;;;;15.10;100.00;97549.78;5132458;27;20432;-78
2021/07/23 03:54:45;;;;;;;13.90;6.75;;;;;;;15.22;100.00;97559.59;5134973;27;20372;-75
2021/07/23 03:57:10;;;;;;;11.80;6.60;;;;;;;15.26;100.00;97554.81;5136321;27;20055;-76
2021/07/23 03:59:36;;;;;;;12.55;6.95;;;;;;;15.46;100.00;97563.00;5135910;27;20027;-76
2021/07/23 04:02:02;;;;;;;15.57;9.18;;;;;;;15.52;100.00;97573.31;5136074;27;20118;-75
2021/07/23 04:04:27;;;;;;;14.70;7.22;;;;;;;15.55;100.00;97562.28;5134698;27;20023;-75
2021/07/23 04:07:00;;;;;;;12.90;6.05;;;;;;;15.67;100.00;97571.19;5134609;27;20152;-76
2021/07/23 04:09:26;;;;;;;12.15;6.47;;;;;;;15.66;100.00;97570.31;5134641;27;20023;-76
2021/07/23 04:11:53;;;;;;;13.18;7.20;;;;;;;15.75;100.00;97573.28;5135780;27;20023;-75
2021/07/23 04:14:19;;;;;;;10.05;6.53;;;;;;;15.72;100.00;97564.44;5134374;27;20145;-75
2021/07/23 04:16:45;;;;;;;15.35;7.13;;;;;;;15.75;100.00;97584.06;5133041;27;20027;-76
2021/07/23 04:19:11;;;;;;;11.98;7.20;;;;;;;15.91;100.00;97577.25;5134792;27;20164;-80
2021/07/23 04:21:37;;;;;;;14.60;7.53;;;;;;;15.98;100.00;97559.59;5135136;27;20026;-76
2021/07/23 04:24:02;;;;;;;11.85;7.03;;;;;;;16.09;100.00;97564.94;5134231;27;20403;-75
2021/07/23 04:26:28;;;;;;;17.92;7.07;;;;;;;16.33;100.00;97580.91;5135558;27;20102;-76
2021/07/23 04:28:54;;;;;;;12.00;6.60;;;;;;;16.32;100.00;97565.69;5134502;27;20115;-75
2021/07/23 04:31:19;;;;;;;19.10;6.72;;;;;;;16.48;100.00;97576.91;5134538;27;20470;-75
2021/07/23 04:33:45;;;;;;;13.55;7.28;;;;;;;16.45;100.00;97573.63;5135649;27;20033;-75
2021/07/23 04:36:10;;;;;;;18.92;6.93;;;;;;;16.42;100.00;97571.19;5135214;27;20114;-75
2021/07/23 04:38:36;;;;;;;17.15;7.80;;;;;;;16.69;100.00;97576.94;5134134;27;20057;-76
2021/07/23 04:41:03;;;;;;;11.75;6.47;;;;;;;18.00;92.53;97576.94;5135504;27;20031;-75
2021/07/23 04:43:29;;;;;;;11.68;6.18;;;;;;;19.37;83.50;97579.25;5134290;27;20066;-76
2021/07/23 04:45:54;;;;;;;15.40;6.78;;;;;;;19.41;79.98;97569.88;5117078;27;20065;-75
2021/07/23 04:48:20;;;;;;;12.48;5.88;;;;;;;18.99;82.28;97579.38;5133612;27;20031;-75
2021/07/23 04:50:45;;;;;;;13.27;6.28;;;;;;;18.74;83.97;97586.25;5133922;27;20011;-75
2021/07/23 04:53:11;;;;;;;14.77;7.00;;;;;;;18.49;85.90;97571.44;5133527;27;20505;-75
2021/07/23 04:55:37;;;;;;;17.95;7.25;;;;;;;18.33;87.02;97560.31;5134694;27;20470;-74
2021/07/23 04:58:03;;;;;;;11.00;6.97;;;;;;;18.29;87.88;97567.00;5133306;27;20031;-75
2021/07/23 05:00:28;;;;;;;19.40;7.65;;;;;;;18.16;89.69;97571.84;5133387;27;20040;-74
2021/07/23 05:02:57;;;;;;;15.63;7.38;;;;;;;18.42;88.70;97573.00;5134717;27;20026;-75
2021/07/23 05:05:23;;;;;;;32.30;8.63;;;;;;;19.12;85.61;97574.47;5132304;27;20091;-75
2021/07/23 05:07:49;;;;;;;15.88;6.70;;;;;;;20.98;74.97;97569.28;5133621;27;20040;-75
2021/07/23 05:10:15;;;;;;;14.18;6.55;;;;;;;22.58;67.05;97578.34;5132904;27;20050;-76
2021/07/23 05:12:41;;;;;;;16.58;6.65;;;;;;;22.60;65.65;97581.78;5133288;27;20557;-75
2021/07/23 05:15:08;;;;;;;11.88;6.70;;;;;;;21.82;68.48;97570.31;5133170;27;20418;-75
2021/07/23 05:17:33;;;;;;;12.57;7.60;;;;;;;21.15;71.61;97575.75;5133012;27;20394;-75
2021/07/23 05:20:01;;;;;;;15.07;6.65;;;;;;;21.14;72.11;97568.56;5115213;27;20031;-76
2021/07/23 05:22:27;;;;;;;14.90;6.97;;;;;;;20.85;74.82;97575.16;5132929;27;20023;-76
2021/07/23 05:24:53;;;;;;;26.02;6.20;;;;;;;21.56;70.68;97564.09;5133621;27;20034;-76
2021/07/23 05:27:18;;;;;;;14.13;6.07;;;;;;;23.36;63.75;97574.09;5114993;27;20023;-76
2021/07/23 05:29:44;;;;;;;39.55;6.13;;;;;;;24.85;57.88;97573.94;5132906;27;20027;-75
2021/07/23 05:32:09;;;;;;;14.45;5.65;;;;;;;26.42;52.13;97570.78;5133626;27;20031;-76
2021/07/23 05:34:35;;;;;;;54.20;7.15;;;;;;;27.42;48.75;97574.38;5134392;27;20023;-76
2021/07/23 05:37:00;;;;;;;13.05;5.88;;;;;;;28.52;45.57;97580.69;5133196;27;20038;-76
2021/07/23 05:39:26;;;;;;;16.60;6.38;;;;;;;29.48;43.06;97584.91;5132704;27;20066;-76
2021/07/23 05:41:52;;;;;;;12.18;5.70;;;;;;;29.53;42.34;97570.50;5134337;27;20054;-77
2021/07/23 05:44:17;;;;;;;25.17;14.23;;;;;;;30.52;40.14;97577.47;5115889;27;20022;-76
2021/07/23 05:46:43;;;;;;;26.08;12.77;;;;;;;31.04;39.50;97581.03;5133737;27;20030;-76
2021/07/23 05:49:08;;;;;;;13.80;7.47;;;;;;;31.62;37.91;97582.47;5133397;27;20414;-76
2021/07/23 05:51:34;;;;;;;12.95;6.28;;;;;;;32.16;37.15;97570.66;5133593;27;20497;-76
2021/07/23 05:53:59;;;;;;;19.92;7.53;;;;;;;32.64;36.00;97578.19;5132893;27;20023;-76
2021/07/23 05:56:25;;;;;;;12.98;7.32;;;;;;;32.70;35.33;97578.09;5133569;27;20443;-74
2021/07/23 05:58:50;;;;;;;18.92;7.30;;;;;;;33.36;34.32;97585.44;5133909;27;20048;-75
2021/07/23 06:01:16;;;;;;;24.27;6.75;;;;;;;33.78;33.40;97577.91;5133760;27;20103;-74
2021/07/23 06:03:41;;;;;;;15.93;6.00;;;;;;;32.41;35.03;97580.81;5133692;27;20026;-74
2021/07/23 06:06:07;;;;;;;26.83;9.32;;;;;;;33.72;33.73;97563.06;5133633;27;20102;-75
2021/07/23 06:08:32;;;;;;;27.23;7.82;;;;;;;34.04;33.40;97568.25;5132068;27;20027;-75
2021/07/23 06:11:05;;;;;;;17.02;6.93;;;;;;;32.79;35.08;97581.41;5133782;27;20027;-75
2021/07/23 06:13:34;;;;;;;18.90;10.57;;;;;;;33.74;34.00;97580.34;5114673;27;20047;-75
2021/07/23 06:16:02;;;;;;;25.85;13.32;;;;;;;34.18;33.38;97578.03;5132157;27;20019;-75
2021/07/23 06:18:28;;;;;;;30.95;12.05;;;;;;;33.64;34.02;97577.31;5114190;27;20034;-74
2021/07/23 06:20:53;;;;;;;32.20;8.55;;;;;;;33.83;32.95;97572.50;5132838;27;20106;-74
2021/07/23 06:23:19;;;;;;;15.20;7.20;;;;;;;33.44;33.83;97578.72;5133109;27;20490;-75
2021/07/23 06:25:44;;;;;;;9.90;5.68;;;;;;;33.57;33.43;97581.25;5133178;27;20106;-75
2021/07/23 06:28:10;;;;;;;6.18;4.30;;;;;;;33.17;33.70;97583.84;5133005;27;20101;-75
2021/07/23 06:30:36;;;;;;;9.70;4.93;;;;;;;33.22;34.13;97564.56;5132974;27;20110;-75
2021/07/23 06:33:01;;;;;;;13.32;6.32;;;;;;;32.89;34.41;97580.81;5132824;27;20023;-75
2021/07/23 06:35:29;;;;;;;11.43;6.85;;;;;;;32.93;33.96;97565.41;5114145;27;20510;-75
2021/07/23 06:37:55;;;;;;;15.18;10.07;;;;;;;34.40;32.31;97572.69;5131739;27;20027;-75
2021/07/23 06:40:21;;;;;;;16.33;7.18;;;;;;;34.80;31.28;97570.75;5131625;27;20030;-75
2021/07/23 06:42:46;;;;;;;14.15;6.85;;;;;;;34.10;31.91;97562.59;5132647;27;20053;-75
2021/07/23 06:45:12;;;;;;;10.50;7.07;;;;;;;35.53;30.28;97569.91;5132635;27;20402;-75
2021/07/23 06:47:37;;;;;;;13.57;6.30;;;;;;;35.74;30.60;97572.81;5131005;27;21306;-77
2021/07/23 06:50:03;;;;;;;12.27;6.45;;;;;;;34.64;31.54;97569.63;5131380;27;20027;-75
2021/07/23 06:52:29;;;;;;;8.02;6.20;;;;;;;34.99;31.33;97571.41;5132321;27;20027;-76
2021/07/23 06:54:54;;;;;;;14.50;6.70;;;;;;;35.29;30.31;97566.44;5131067;27;20027;-75
2021/07/23 06:57:20;;;;;;;7.22;6.00;;;;;;;35.06;30.92;97569.31;5132405;27;20023;-74
2021/07/23 06:59:48;;;;;;;11.77;5.13;;;;;;;35.81;29.45;97565.09;5131343;27;20035;-75
2021/07/23 07:02:14;;;;;;;7.10;4.80;;;;;;;36.90;28.71;97563.28;5131507;27;20518;-75
2021/07/23 07:04:39;;;;;;;8.68;4.97;;;;;;;37.01;28.33;97543.91;5132266;27;20027;-77
2021/07/23 07:07:09;;;;;;;44.67;6.90;;;;;;;37.37;27.40;97555.16;5132338;27;20034;-74
2021/07/23 07:09:36;;;;;;;17.20;4.97;;;;;;;37.17;28.10;97554.09;5131267;27;20139;-76
2021/07/23 07:12:02;;;;;;;21.42;5.25;;;;;;;36.37;29.15;97546.44;5132453;27;20035;-77
2021/07/23 07:14:27;;;;;;;38.83;6.22;;;;;;;35.08;30.04;97551.28;5132174;27;20133;-76
2021/07/23 07:16:53;;;;;;;30.77;6.88;;;;;;;34.57;30.79;97552.22;5132229;27;20020;-76
2021/07/23 07:19:19;;;;;;;6.05;4.57;;;;;;;33.60;32.07;97545.56;5113897;27;20027;-76
2021/07/23 07:21:50;;;;;;;115.95;9.23;;;;;;;33.85;32.80;97548.09;5131271;27;20447;-76
2021/07/23 07:24:17;;;;;;;106.45;11.32;;;;;;;33.50;32.78;97556.38;5131488;27;20030;-76
2021/07/23 07:26:44;;;;;;;21.60;5.10;;;;;;;33.59;32.66;97543.91;5131699;27;20034;-76
2021/07/23 07:29:10;;;;;;;21.20;4.50;;;;;;;33.93;31.80;97533.88;5131083;27;20022;-76
2021/07/23 07:31:35;;;;;;;7.97;5.07;;;;;;;35.29;30.04;97538.59;5132457;28;20076;-76
2021/07/23 07:34:01;;;;;;;29.58;7.25;;;;;;;35.27;30.69;97540.81;5132588;27;20019;-76
2021/07/23 07:36:26;;;;;;;26.83;5.88;;;;;;;35.53;30.57;97537.38;5131238;28;20099;-75
2021/07/23 07:38:52;;;;;;;6.03;4.03;;;;;;;34.05;31.15;97543.03;5131369;28;20478;-75
2021/07/23 07:41:19;;;;;;;11.13;3.75;;;;;;;33.72;31.46;97542.78;5114103;28;20022;-76
2021/07/23 07:43:44;;;;;;;14.68;4.55;;;;;;;33.12;32.25;97539.34;5132233;27;20509;-75
2021/07/23 07:46:10;;;;;;;16.88;4.18;;;;;;;30.81;35.43;97539.25;5131172;28;20020;-76
2021/07/23 07:48:35;;;;;;;80.85;6.25;;;;;;;31.15;36.33;97547.13;5132230;27;20031;-76
2021/07/23 07:51:01;;;;;;;23.20;5.60;;;;;;;32.06;35.06;97537.13;5132500;27;20470;-76
2021/07/23 07:53:26;;;;;;;25.70;5.30;;;;;;;32.72;34.17;97552.91;5132530;27;20026;-76
2021/07/23 07:55:52;;;;;;;19.30;6.18;;;;;;;32.70;34.25;97550.38;5130709;28;20035;-76
2021/07/23 07:58:18;;;;;;;16.13;4.60;;;;;;;31.63;35.78;97544.59;5130778;28;20030;-76
2021/07/23 08:00:43;;;;;;;22.02;4.53;;;;;;;31.06;36.61;97537.41;5132281;27;20063;-75
2021/07/23 08:03:09;;;;;;;22.50;5.80;;;;;;;31.04;36.95;97531.28;5131931;27;20039;-76
2021/07/23 08:05:34;;;;;;;16.33;4.15;;;;;;;31.71;35.33;97538.78;5130674;28;20395;-76
2021/07/23 08:08:02;;;;;;;49.83;5.15;;;;;;;33.58;33.48;97538.53;5130986;27;20019;-75
2021/07/23 08:10:31;;;;;;;9.90;3.72;;;;;;;35.08;30.37;97525.41;5132442;27;20509;-77
2021/07/23 08:12:56;;;;;;;16.48;5.20;;;;;;;37.10;28.76;97523.59;5131092;27;20574;-76
2021/07/23 08:15:22;;;;;;;57.10;5.88;;;;;;;37.74;28.09;97520.84;5130389;27;20126;-75
2021/07/23 08:17:47;;;;;;;8.73;3.97;;;;;;;38.52;25.40;97517.13;5131482;27;20030;-73
2021/07/23 08:20:13;;;;;;;12.05;6.00;;;;;;;39.39;25.08;97514.28;5131811;27;20011;-77
2021/07/23 08:22:39;;;;;;;22.35;14.48;;;;;;;40.06;24.17;97513.09;5131553;27;20027;-77
2021/07/23 08:25:05;;;;;;;12.27;4.53;;;;;;;39.58;23.09;97489.34;5130478;28;20080;-75
2021/07/23 08:27:30;;;;;;;13.10;6.18;;;;;;;39.49;23.44;97493.84;5131666;27;20024;-76
2021/07/23 08:29:58;;;;;;;13.32;7.10;;;;;;;39.37;24.05;97498.88;5131409;27;20062;-75
2021/07/23 08:32:24;;;;;;;5.97;4.55;;;;;;;39.76;23.42;97497.19;5131473;27;20054;-75
2021/07/23 08:34:56;;;;;;;5.47;3.40;;;;;;;40.46;21.80;97498.97;5130307;28;20066;-74
2021/07/23 08:37:21;;;;;;;4.55;2.83;;;;;;;40.53;20.94;97490.28;5130193;27;20031;-75
2021/07/23 08:39:47;;;;;;;19.85;5.40;;;;;;;40.64;22.00;97493.88;5131263;27;20027;-75
2021/07/23 08:42:29;;;;;;;10.27;4.10;;;;;;;40.60;21.87;97496.41;5134223;27;20031;-74
2021/07/23 08:44:57;;;;;;;6.68;4.90;;;;;;;40.00;22.79;97487.03;5133691;27;20426;-74
2021/07/23 08:47:23;;;;;;;27.70;5.70;;;;;;;39.92;23.28;97506.41;5134135;27;20019;-74
2021/07/23 08:49:49;;;;;;;10.27;5.53;;;;;;;39.30;23.60;97499.16;5133605;27;20031;-74
2021/07/23 08:52:14;;;;;;;54.38;6.72;;;;;;;38.95;24.78;97499.91;5133654;27;20383;-74
2021/07/23 08:54:40;;;;;;;26.17;5.57;;;;;;;37.94;26.18;97502.28;5133444;27;20556;-75
2021/07/23 08:57:09;;;;;;;11.98;4.45;;;;;;;40.05;25.08;97508.63;5133597;27;20027;-74
2021/07/23 08:59:36;;;;;;;9.57;4.75;;;;;;;41.42;22.93;97508.81;5116492;27;20083;-75
2021/07/23 09:02:06;;;;;;;8.18;3.90;;;;;;;42.11;21.51;97483.16;5133751;27;20048;-75
2021/07/23 09:04:35;;;;;;;114.32;7.32;;;;;;;41.29;21.64;97482.22;5133736;27;20034;-75
2021/07/23 09:07:15;;;;;;;6.20;4.22;;;;;;;41.31;21.83;97487.53;5134976;27;20023;-75
2021/07/23 09:10:04;;;;;;;24.95;4.55;;;;;;;41.67;20.13;97472.06;5134748;27;20023;-75
2021/07/23 09:12:43;;;;;;;8.88;3.75;;;;;;;41.57;19.64;97458.94;5134546;27;20072;-75
2021/07/23 09:15:19;;;;;;;4.85;3.42;;;;;;;41.29;20.30;97476.59;5133144;27;20043;-75
2021/07/23 09:17:45;;;;;;;7.03;3.38;;;;;;;42.00;20.48;97474.00;5134275;27;20438;-75
2021/07/23 09:20:11;;;;;;;10.45;3.30;;;;;;;42.14;20.11;97465.69;5133078;27;20019;-75
2021/07/23 09:22:48;;;;;;;6.63;3.38;;;;;;;41.94;20.09;97472.38;5115948;27;20022;-75
2021/07/23 09:25:15;;;;;;;7.28;3.20;;;;;;;41.78;19.93;97464.41;5133109;27;20391;-75
2021/07/23 09:27:40;;;;;;;6.82;3.53;;;;;;;42.67;19.59;97450.41;5134145;27;20077;-74
2021/07/23 09:30:07;;;;;;;14.80;3.88;;;;;;;43.02;20.06;97459.47;5132895;27;20069;-75
2021/07/23 09:32:33;;;;;;;49.47;5.90;;;;;;;43.90;18.93;97452.94;5133050;27;20027;-75
2021/07/23 09:35:10;;;;;;;8.60;4.00;;;;;;;43.26;19.88;97465.00;5132454;27;20486;-75
2021/07/23 09:37:58;;;;;;;9.52;3.65;;;;;;;43.51;19.00;97456.16;5134380;27;20027;-75
2021/07/23 09:40:24;;;;;;;10.68;3.47;;;;;;;42.11;20.16;97455.03;5132724;27;20027;-75
2021/07/23 09:42:57;;;;;;;5.45;3.20;;;;;;;41.43;21.16;97457.13;5132809;27;20405;-75
2021/07/23 09:45:31;;;;;;;4.63;3.40;;;;;;;41.12;21.38;97456.53;5132496;27;20031;-74
2021/07/23 09:48:13;;;;;;;7.47;3.78;;;;;;;41.63;20.64;97443.72;5132416;27;20042;-74
2021/07/23 09:50:44;;;;;;;6.47;3.88;;;;;;;41.68;20.66;97445.66;5132630;27;20023;-75
2021/07/23 09:53:15;;;;;;;4.85;3.75;;;;;;;40.58;21.76;97448.97;5132021;27;20454;-75
2021/07/23 09:55:46;;;;;;;14.73;5.45;;;;;;;41.21;21.19;97453.91;5132383;27;20035;-75
2021/07/23 09:58:19;;;;;;;5.95;4.25;;;;;;;41.04;21.04;97443.94;5132653;27;21272;-75
2021/07/23 10:00:53;;;;;;;4.85;3.95;;;;;;;40.58;21.47;97436.91;5133541;27;20034;-75
2021/07/23 10:03:20;;;;;;;18.80;4.50;;;;;;;41.66;20.44;97431.03;5132333;27;20027;-75
2021/07/23 10:06:07;;;;;;;29.13;6.47;;;;;;;42.46;20.41;97437.72;5115231;27;20398;-75
2021/07/23 10:08:35;;;;;;;9.55;3.88;;;;;;;43.10;19.11;97434.28;5132272;27;20023;-75
2021/07/23 10:11:01;;;;;;;9.65;3.70;;;;;;;41.85;19.32;97420.75;5114948;27;20045;-75
2021/07/23 10:13:29;;;;;;;15.95;3.63;;;;;;;41.94;18.58;97415.28;5133517;27;20062;-75
2021/07/23 10:15:55;;;;;;;25.27;4.25;;;;;;;40.96;18.93;97422.09;5132145;27;20031;-76
2021/07/23 10:18:24;;;;;;;45.75;4.82;;;;;;;41.05;19.06;97411.91;5132237;27;20478;-76
2021/07/23 10:20:50;;;;;;;127.07;8.45;;;;;;;42.49;18.19;97399.69;5132063;27;20030;-75
2021/07/23 10:23:20;;;;;;;243.10;12.43;;;;;;;43.13;18.11;97413.94;5133248;27;20038;-75
2021/07/23 10:25:49;;;;;;;11.47;3.63;;;;;;;40.32;19.41;97388.53;5132279;27;20538;-75
2021/07/23 10:28:38;;;;;;;143.10;8.88;;;;;;;40.70;19.33;97395.34;5114675;27;20027;-76
2021/07/23 10:31:35;;;;;;;33.88;5.88;;;;;;;41.03;19.11;97402.97;5132836;27;20398;-75
2021/07/23 10:34:06;;;;;;;64.55;6.43;;;;;;;42.14;17.51;97393.41;5126880;27;20494;-75
2021/07/23 10:36:32;;;;;;;67.72;5.85;;;;;;;42.37;17.98;97402.94;5131872;27;20030;-76
2021/07/23 10:39:06;;;;;;;52.92;6.35;;;;;;;42.64;16.27;97385.44;5132864;27;20038;-75
2021/07/23 10:41:36;;;;;;;6.35;3.53;;;;;;;42.97;16.80;97381.56;5132685;27;20534;-75
2021/07/23 10:44:04;;;;;;;4.97;3.23;;;;;;;42.29;16.61;97377.47;5133103;27;20118;-75
2021/07/23 10:46:47;;;;;;;8.27;4.10;;;;;;;42.64;17.68;97379.81;5131449;27;20055;-75
2021/07/23 10:49:31;;;;;;;5.72;3.63;;;;;;;42.01;17.74;97377.25;5132571;27;20088;-75
2021/07/23 10:52:00;;;;;;;11.88;3.38;;;;;;;41.99;17.88;97378.69;5132319;27;20046;-76
2021/07/23 10:54:30;;;;;;;20.17;3.80;;;;;;;40.66;18.39;97366.16;5131317;27;20126;-75
2021/07/23 10:57:02;;;;;;;7.85;3.67;;;;;;;38.80;20.34;97371.19;5131331;27;20591;-76
2021/07/23 10:59:40;;;;;;;15.43;3.92;;;;;;;37.55;18.44;97357.59;5131114;27;20064;-75
2021/07/23 11:02:15;;;;;;;16.08;3.80;;;;;;;37.20;18.98;97355.41;5132340;27;20046;-75
2021/07/23 11:04:41;;;;;;;5.13;4.07;;;;;;;37.76;18.56;97349.06;5130314;27;20454;-76
2021/07/23 11:07:08;;;;;;;8.65;3.88;;;;;;;39.13;19.74;97364.19;5132273;27;20405;-76
2021/07/23 11:09:35;;;;;;;18.00;4.30;;;;;;;40.45;18.26;97359.00;5131376;27;20394;-79
2021/07/23 11:12:21;;;;;;;6.82;3.78;;;;;;;41.42;16.95;97340.25;5132298;27;20027;-79
2021/07/23 11:14:57;;;;;;;5.35;3.70;;;;;;;41.64;17.98;97354.63;5113748;28;20043;-79
2021/07/23 11:17:23;;;;;;;6.50;3.65;;;;;;;42.36;17.64;97347.84;5132140;27;20023;-77
2021/07/23 11:19:52;;;;;;;7.00;3.60;;;;;;;42.71;16.83;97366.16;5132350;27;20381;-76
2021/07/23 11:22:23;;;;;;;49.83;5.18;;;;;;;41.95;17.64;97344.72;5132020;27;20031;-77
2021/07/23 11:24:49;;;;;;;13.80;3.78;;;;;;;40.41;19.09;97353.13;5130992;27;20034;-76